Terminal Aerodrome Forecast
Issued by NWS

Home | Current Version | Previous Version | Text Only | Print | Product List | Glossary On
Versions: 1 2 3 4 5 6 7 8 9 10 11 12 13 14 15 16 17 18 19 20
000
FTUS44 KSJT 272339
TAFJCT
TAF
KJCT 272339Z 2800/2824 13011G17KT P6SM FEW080
     FM280200 14005KT P6SM SKC
     FM280700 VRB03KT P6SM BKN015
     FM281700 15009KT P6SM SCT045=

USA.gov is the U.S. government's official web portal to all federal, state and local government web resources and services.